Time;durP1;ratioP1;P1;durP2;ratioP2;P2;SDS_P1;SDS_P2;PMS_P1;PMS_P2;Temp;Humidity;BMP_temperature;BMP_pressure;BME280_temperature;BME280_humidity;BME280_pressure;Samples;Min_cycle;Max_cycle;Signal;HPM_P1;HPM_P2
2021/11/26 00:01:12;;;;;;;48.45;36.15;;;;;;;3.04;100.00;94748.53;5068923;28;20028;-62
2021/11/26 00:03:37;;;;;;;49.83;38.00;;;;;;;3.05;100.00;94747.56;5071499;28;20033;-61
2021/11/26 00:06:03;;;;;;;51.45;37.67;;;;;;;3.03;100.00;94744.28;5070306;28;20036;-62
2021/11/26 00:08:29;;;;;;;48.10;36.03;;;;;;;2.99;100.00;94738.50;5071176;28;20044;-62
2021/11/26 00:10:54;;;;;;;45.90;34.88;;;;;;;2.99;100.00;94743.69;5067674;28;20488;-61
2021/11/26 00:13:25;;;;;;;44.25;32.92;;;;;;;2.97;100.00;94732.56;5076819;28;20047;-61
2021/11/26 00:15:52;;;;;;;42.72;32.58;;;;;;;2.98;100.00;94735.06;5068990;28;20040;-61
2021/11/26 00:18:19;;;;;;;45.72;33.58;;;;;;;3.00;100.00;94727.16;5068687;28;20500;-62
2021/11/26 00:20:45;;;;;;;44.97;32.88;;;;;;;3.00;100.00;94727.16;5068838;28;20095;-61
2021/11/26 00:23:12;;;;;;;46.35;34.63;;;;;;;2.99;100.00;94733.28;5068841;28;20036;-61
2021/11/26 00:25:37;;;;;;;55.10;38.53;;;;;;;2.95;100.00;94724.91;5071153;28;20519;-61
2021/11/26 00:28:03;;;;;;;54.80;41.67;;;;;;;2.93;100.00;94725.94;5069051;28;20033;-62
2021/11/26 00:30:29;;;;;;;61.10;43.97;;;;;;;3.30;100.00;94720.47;5052534;28;20036;-61
2021/11/26 00:32:55;;;;;;;56.10;41.10;;;;;;;3.22;100.00;94721.06;5068802;28;20605;-61
2021/11/26 00:35:20;;;;;;;53.90;38.40;;;;;;;3.04;100.00;94712.94;5069214;28;20029;-61
2021/11/26 00:37:46;;;;;;;49.17;36.38;;;;;;;3.06;100.00;94715.41;5069013;28;20407;-62
2021/11/26 00:40:12;;;;;;;55.13;36.45;;;;;;;3.06;100.00;94710.22;5062919;28;20029;-61
2021/11/26 00:42:41;;;;;;;53.30;36.65;;;;;;;3.04;100.00;94705.16;5067984;28;20045;-61
2021/11/26 00:45:07;;;;;;;48.83;35.58;;;;;;;3.10;100.00;94709.88;5070677;28;20042;-61
2021/11/26 00:47:32;;;;;;;53.08;37.53;;;;;;;2.90;100.00;94708.00;5071962;28;20036;-61
2021/11/26 00:49:58;;;;;;;51.00;38.75;;;;;;;2.93;100.00;94708.59;5068389;28;20056;-61
2021/11/26 00:52:23;;;;;;;51.20;37.10;;;;;;;2.88;100.00;94717.69;5068502;28;20040;-61
2021/11/26 00:54:48;;;;;;;52.67;35.10;;;;;;;2.93;100.00;94707.75;5068747;28;20044;-62
2021/11/26 00:57:14;;;;;;;47.85;34.15;;;;;;;2.77;100.00;94718.50;5070129;28;20085;-61
2021/11/26 00:59:40;;;;;;;53.53;35.83;;;;;;;2.69;100.00;94712.13;5068445;28;20060;-61
2021/11/26 01:02:06;;;;;;;54.22;36.72;;;;;;;2.62;100.00;94716.13;5061104;28;20029;-61
2021/11/26 01:04:32;;;;;;;47.58;34.63;;;;;;;2.73;100.00;94715.31;5047610;28;20051;-61
2021/11/26 01:06:58;;;;;;;44.03;33.78;;;;;;;2.66;100.00;94712.38;5051182;28;20033;-62
2021/11/26 01:09:24;;;;;;;47.45;35.65;;;;;;;2.47;100.00;94717.31;5045900;28;20044;-61
2021/11/26 01:11:49;;;;;;;49.10;33.55;;;;;;;2.66;100.00;94716.72;5051509;28;20025;-61
2021/11/26 01:14:15;;;;;;;44.60;32.10;;;;;;;2.58;100.00;94718.16;5048574;28;20041;-61
2021/11/26 01:16:41;;;;;;;48.67;34.60;;;;;;;2.40;100.00;94715.16;5048553;28;20052;-61
2021/11/26 01:19:06;;;;;;;42.22;31.67;;;;;;;2.84;100.00;94706.69;5048691;28;20024;-61
2021/11/26 01:21:32;;;;;;;46.30;33.03;;;;;;;2.61;100.00;94716.28;5045682;28;20120;-61
2021/11/26 01:23:57;;;;;;;44.70;33.85;;;;;;;2.89;100.00;94708.94;5050749;28;20040;-61
2021/11/26 01:26:23;;;;;;;45.25;33.63;;;;;;;2.65;100.00;94715.09;5050506;28;20040;-61
2021/11/26 01:28:49;;;;;;;48.67;33.42;;;;;;;2.45;100.00;94724.41;5055101;28;20041;-61
2021/11/26 01:31:15;;;;;;;44.85;32.05;;;;;;;2.56;100.00;94716.59;5055813;28;20096;-61
2021/11/26 01:33:41;;;;;;;46.85;33.20;;;;;;;2.59;100.00;94711.19;5052511;28;20744;-61
2021/11/26 01:36:06;;;;;;;43.15;32.63;;;;;;;2.67;100.00;94718.38;5050886;28;20480;-61
2021/11/26 01:38:32;;;;;;;51.63;35.33;;;;;;;2.47;100.00;94720.72;5054864;28;20068;-61
2021/11/26 01:40:57;;;;;;;48.33;32.83;;;;;;;2.36;100.00;94721.53;5053196;28;20037;-61
2021/11/26 01:43:23;;;;;;;48.40;35.15;;;;;;;2.57;100.00;94723.47;5049481;28;20121;-62
2021/11/26 01:45:52;;;;;;;54.20;35.83;;;;;;;2.51;100.00;94718.75;5052705;28;20033;-61
2021/11/26 01:48:20;;;;;;;48.13;31.70;;;;;;;2.63;100.00;94716.97;5052558;28;20432;-61
2021/11/26 01:50:47;;;;;;;48.67;33.72;;;;;;;2.65;100.00;94723.72;5051798;28;20063;-61
2021/11/26 01:53:12;;;;;;;47.83;32.67;;;;;;;2.51;100.00;94716.94;5052432;28;20559;-61
2021/11/26 01:55:38;;;;;;;47.10;34.67;;;;;;;2.35;100.00;94706.09;5050435;28;20037;-61
2021/11/26 01:58:04;;;;;;;45.72;33.20;;;;;;;2.52;100.00;94700.41;5052480;28;20119;-61
2021/11/26 02:00:33;;;;;;;42.85;31.50;;;;;;;2.56;100.00;94701.84;5050813;28;20123;-61
2021/11/26 02:02:59;;;;;;;36.28;27.20;;;;;;;2.45;100.00;94693.22;5051125;28;20053;-61
2021/11/26 02:05:25;;;;;;;40.13;29.25;;;;;;;2.31;100.00;94695.09;5052492;28;20033;-61
2021/11/26 02:07:51;;;;;;;41.90;30.73;;;;;;;2.33;100.00;94697.59;5052098;28;20078;-61
2021/11/26 02:10:17;;;;;;;37.50;28.27;;;;;;;2.42;100.00;94697.69;5049648;28;20519;-61
2021/11/26 02:12:43;;;;;;;44.38;30.75;;;;;;;2.28;100.00;94696.13;5053044;28;20033;-61
2021/11/26 02:15:09;;;;;;;41.17;28.25;;;;;;;2.39;100.00;94694.50;5052174;28;20028;-61
2021/11/26 02:17:35;;;;;;;44.70;29.02;;;;;;;2.39;100.00;94700.53;5051729;28;20041;-61
2021/11/26 02:20:01;;;;;;;40.15;29.33;;;;;;;2.22;100.00;94696.59;5051866;28;20041;-61
2021/11/26 02:22:27;;;;;;;39.55;27.55;;;;;;;2.23;100.00;94697.44;5044816;28;20044;-61
2021/11/26 02:24:53;;;;;;;44.45;29.10;;;;;;;2.01;100.00;94696.47;5052248;28;20029;-61
2021/11/26 02:27:19;;;;;;;41.83;27.00;;;;;;;1.96;100.00;94694.19;5052178;28;20107;-61
2021/11/26 02:29:53;;;;;;;48.30;30.35;;;;;;;2.03;100.00;94691.13;5051025;28;20084;-61
2021/11/26 02:32:19;;;;;;;42.63;28.90;;;;;;;2.11;100.00;94691.41;5051195;28;20037;-61
2021/11/26 02:34:44;;;;;;;35.78;25.05;;;;;;;2.15;100.00;94690.22;5051227;28;20045;-61
2021/11/26 02:37:09;;;;;;;27.77;20.70;;;;;;;2.35;100.00;94680.13;5050666;28;20040;-62
2021/11/26 02:39:35;;;;;;;25.98;21.00;;;;;;;2.13;100.00;94676.53;5050627;28;20048;-61
2021/11/26 02:42:00;;;;;;;25.75;20.27;;;;;;;2.27;100.00;94672.91;5050999;28;20128;-61
2021/11/26 02:44:25;;;;;;;27.75;21.15;;;;;;;2.20;100.00;94680.31;5054546;28;20400;-61
2021/11/26 02:46:51;;;;;;;29.15;21.27;;;;;;;2.02;100.00;94682.53;5050455;28;20033;-61
2021/11/26 02:49:17;;;;;;;32.75;21.95;;;;;;;2.03;100.00;94679.00;5050662;28;20025;-61
2021/11/26 02:51:43;;;;;;;31.90;23.48;;;;;;;1.88;100.00;94674.94;5051288;28;20028;-61
2021/11/26 02:54:08;;;;;;;28.35;22.52;;;;;;;2.05;100.00;94677.09;5051479;28;20041;-62
2021/11/26 02:56:33;;;;;;;36.10;23.80;;;;;;;1.90;100.00;94663.50;5051383;28;20257;-61
2021/11/26 02:58:59;;;;;;;35.72;25.42;;;;;;;1.79;100.00;94666.91;5049931;28;20056;-61
2021/11/26 03:01:25;;;;;;;34.92;23.90;;;;;;;1.96;100.00;94668.22;5050699;28;20048;-61
2021/11/26 03:03:50;;;;;;;33.53;24.65;;;;;;;1.78;100.00;94669.59;5050267;28;20045;-61
2021/11/26 03:06:16;;;;;;;31.55;23.20;;;;;;;1.90;100.00;94666.09;5050961;28;20108;-61
2021/11/26 03:08:41;;;;;;;28.80;21.25;;;;;;;2.06;100.00;94665.78;5049168;28;20041;-61
2021/11/26 03:11:07;;;;;;;27.52;21.05;;;;;;;1.78;100.00;94664.41;5051152;28;20087;-61
2021/11/26 03:13:33;;;;;;;29.95;22.05;;;;;;;1.80;100.00;94662.50;5048018;28;20032;-61
2021/11/26 03:15:58;;;;;;;34.05;23.67;;;;;;;2.02;100.00;94660.91;5057333;28;20021;-61
2021/11/26 03:18:27;;;;;;;34.22;23.40;;;;;;;1.81;100.00;94658.97;5048539;28;20033;-61
2021/11/26 03:20:53;;;;;;;28.17;22.67;;;;;;;1.76;100.00;94656.72;5046269;28;20037;-62
2021/11/26 03:23:20;;;;;;;30.38;21.67;;;;;;;2.00;100.00;94658.44;5051504;28;20041;-61
2021/11/26 03:25:46;;;;;;;31.33;22.52;;;;;;;1.85;100.00;94652.63;5049852;28;20059;-61
2021/11/26 03:28:13;;;;;;;27.10;20.85;;;;;;;1.65;100.00;94649.72;5047935;28;20473;-61
2021/11/26 03:30:39;;;;;;;27.85;20.10;;;;;;;2.01;100.00;94652.31;5051856;28;20036;-61
2021/11/26 03:33:05;;;;;;;27.15;21.02;;;;;;;2.09;100.00;94636.97;5048086;28;20040;-61
2021/11/26 03:35:31;;;;;;;31.55;22.15;;;;;;;1.75;100.00;94636.91;5049597;28;20037;-61
2021/11/26 03:37:56;;;;;;;31.17;22.00;;;;;;;1.84;100.00;94632.78;5050213;28;20040;-61
2021/11/26 03:40:23;;;;;;;28.23;20.63;;;;;;;1.64;100.00;94624.72;5052023;28;20473;-61
2021/11/26 03:42:50;;;;;;;26.02;19.88;;;;;;;1.60;100.00;94627.66;5049235;28;20575;-61
2021/11/26 03:45:18;;;;;;;26.02;20.02;;;;;;;1.64;100.00;94627.31;5050634;28;20067;-61
2021/11/26 03:47:44;;;;;;;30.02;21.38;;;;;;;1.63;100.00;94622.25;5049730;28;20515;-61
2021/11/26 03:50:11;;;;;;;25.73;19.55;;;;;;;1.59;100.00;94619.03;5053149;28;20183;-61
2021/11/26 03:52:37;;;;;;;22.75;19.02;;;;;;;1.59;100.00;94619.03;5049794;28;20072;-61
2021/11/26 03:55:05;;;;;;;28.85;20.08;;;;;;;1.67;100.00;94615.88;5050293;28;20036;-62
2021/11/26 03:57:31;;;;;;;21.60;16.00;;;;;;;1.60;100.00;94615.50;5053999;28;20033;-61
2021/11/26 03:59:56;;;;;;;27.65;19.35;;;;;;;1.61;100.00;94613.75;5048270;28;20064;-61
2021/11/26 04:02:22;;;;;;;23.10;18.48;;;;;;;1.57;100.00;94611.41;5051386;28;20412;-61
2021/11/26 04:04:47;;;;;;;22.58;17.27;;;;;;;1.61;100.00;94613.75;5049849;28;20419;-62
2021/11/26 04:07:12;;;;;;;21.60;18.17;;;;;;;1.59;100.00;94613.03;5048370;28;20104;-62
2021/11/26 04:09:38;;;;;;;24.52;18.02;;;;;;;1.58;100.00;94612.22;5051203;28;20124;-61
2021/11/26 04:12:04;;;;;;;20.85;16.95;;;;;;;1.67;100.00;94616.72;5055184;28;20485;-61
2021/11/26 04:14:29;;;;;;;21.73;17.85;;;;;;;1.58;100.00;94609.59;5049412;28;20049;-61
2021/11/26 04:16:55;;;;;;;20.45;16.67;;;;;;;1.55;100.00;94612.44;5048398;28;20044;-62
2021/11/26 04:19:20;;;;;;;17.40;15.05;;;;;;;1.57;100.00;94610.56;5048854;28;20033;-61
2021/11/26 04:21:45;;;;;;;17.67;14.27;;;;;;;1.51;100.00;94609.22;5048375;28;20120;-61
2021/11/26 04:24:11;;;;;;;18.10;15.07;;;;;;;1.54;100.00;94608.19;5047130;28;20051;-61
2021/11/26 04:26:36;;;;;;;20.55;15.57;;;;;;;1.51;100.00;94611.81;5049349;28;20471;-61
2021/11/26 04:29:02;;;;;;;17.15;14.75;;;;;;;1.56;100.00;94604.56;5049639;28;20052;-61
2021/11/26 04:31:27;;;;;;;16.85;14.38;;;;;;;1.54;100.00;94611.59;5049138;28;20091;-61
2021/11/26 04:33:56;;;;;;;18.70;14.75;;;;;;;1.50;100.00;94601.56;5050630;28;20037;-61
2021/11/26 04:36:23;;;;;;;15.80;13.88;;;;;;;1.57;100.00;94601.03;5047939;28;20049;-61
2021/11/26 04:38:48;;;;;;;18.10;15.57;;;;;;;1.47;100.00;94601.81;5048510;28;20033;-61
2021/11/26 04:41:14;;;;;;;16.33;13.95;;;;;;;1.55;100.00;94596.88;5050030;28;20091;-62
2021/11/26 04:43:39;;;;;;;14.88;13.30;;;;;;;1.40;100.00;94602.25;5047360;28;20045;-61
2021/11/26 04:46:04;;;;;;;16.00;13.45;;;;;;;1.38;100.00;94598.94;5049688;28;20039;-61
2021/11/26 04:48:30;;;;;;;15.90;13.50;;;;;;;1.40;100.00;94598.84;5050913;28;20045;-61
2021/11/26 04:50:55;;;;;;;14.95;13.23;;;;;;;1.40;100.00;94591.88;5050848;28;20124;-61
2021/11/26 04:53:21;;;;;;;14.95;13.35;;;;;;;1.41;100.00;94588.31;5047026;28;20032;-61
2021/11/26 04:55:46;;;;;;;14.82;13.27;;;;;;;1.45;100.00;94591.53;5047771;28;20490;-61
2021/11/26 04:58:12;;;;;;;16.13;13.13;;;;;;;1.47;100.00;94588.84;5047635;28;20033;-61
2021/11/26 05:00:38;;;;;;;14.98;12.93;;;;;;;1.46;100.00;94584.59;5046945;28;20064;-61
2021/11/26 05:03:04;;;;;;;15.68;12.95;;;;;;;1.43;100.00;94589.03;5063159;28;20555;-61
2021/11/26 05:05:30;;;;;;;14.45;12.65;;;;;;;1.45;100.00;94582.94;5066729;28;20170;-61
2021/11/26 05:07:57;;;;;;;15.85;13.77;;;;;;;1.47;100.00;94581.06;5069798;28;20542;-61
2021/11/26 05:10:24;;;;;;;17.88;14.48;;;;;;;1.44;100.00;94589.88;5070241;28;20036;-61
2021/11/26 05:12:55;;;;;;;13.57;12.18;;;;;;;1.39;100.00;94582.44;5068635;28;20039;-61
2021/11/26 05:15:25;;;;;;;11.70;10.45;;;;;;;1.33;100.00;94584.66;5070443;28;20041;-61
2021/11/26 05:17:52;;;;;;;13.65;12.25;;;;;;;1.28;100.00;94574.63;5064705;28;20055;-62
2021/11/26 05:20:18;;;;;;;13.73;12.05;;;;;;;1.35;100.00;94577.59;5068008;28;20036;-61
2021/11/26 05:22:43;;;;;;;14.23;12.50;;;;;;;1.49;100.00;94577.38;5075422;28;20511;-61
2021/11/26 05:25:09;;;;;;;13.65;12.13;;;;;;;1.40;100.00;94575.50;5070830;28;20039;-61
2021/11/26 05:27:35;;;;;;;13.88;12.48;;;;;;;1.52;100.00;94581.53;5070819;28;20513;-61
2021/11/26 05:30:00;;;;;;;13.25;11.80;;;;;;;1.32;100.00;94575.22;5067818;28;20108;-61
2021/11/26 05:32:26;;;;;;;13.27;11.23;;;;;;;1.30;100.00;94570.16;5069028;28;20036;-61
2021/11/26 05:34:51;;;;;;;12.32;10.98;;;;;;;1.30;100.00;94572.75;5068689;28;20036;-61
2021/11/26 05:37:16;;;;;;;13.02;11.57;;;;;;;1.25;100.00;94572.25;5066166;28;20044;-61
2021/11/26 05:39:42;;;;;;;15.23;13.05;;;;;;;1.24;100.00;94574.00;5066427;28;20119;-61
2021/11/26 05:42:07;;;;;;;12.77;11.05;;;;;;;1.19;100.00;94588.25;5069809;28;20403;-62
2021/11/26 05:44:33;;;;;;;12.68;11.38;;;;;;;1.14;100.00;94576.44;5067169;28;20040;-61
2021/11/26 05:46:58;;;;;;;12.85;11.27;;;;;;;1.16;100.00;94578.09;5067686;28;20048;-61
2021/11/26 05:49:23;;;;;;;15.45;12.77;;;;;;;1.14;100.00;94579.03;5069450;28;20498;-61
2021/11/26 05:51:49;;;;;;;14.18;12.38;;;;;;;1.23;100.00;94577.56;5071446;28;20043;-61
2021/11/26 05:54:14;;;;;;;14.55;12.00;;;;;;;1.16;100.00;94575.50;5067643;28;20032;-61
2021/11/26 05:56:40;;;;;;;15.68;10.88;;;;;;;1.15;100.00;94577.28;5072457;28;20144;-61
2021/11/26 05:59:05;;;;;;;12.85;11.35;;;;;;;1.12;100.00;94570.56;5056938;28;20484;-61
2021/11/26 06:01:30;;;;;;;13.52;12.02;;;;;;;1.10;100.00;94576.78;5066928;28;20124;-61
2021/11/26 06:03:56;;;;;;;14.40;12.00;;;;;;;1.11;100.00;94573.28;5046364;28;20048;-61
2021/11/26 06:06:21;;;;;;;13.90;12.02;;;;;;;1.10;100.00;94579.38;5051909;28;20041;-61
2021/11/26 06:08:47;;;;;;;13.88;11.55;;;;;;;0.92;100.00;94572.00;5053568;28;20037;-61
2021/11/26 06:11:12;;;;;;;15.95;12.80;;;;;;;0.99;100.00;94574.97;5055562;28;20025;-60
2021/11/26 06:13:37;;;;;;;16.35;12.55;;;;;;;1.00;100.00;94576.66;5055001;28;20041;-60
2021/11/26 06:16:03;;;;;;;14.77;12.88;;;;;;;1.02;100.00;94574.75;5051516;28;20037;-60
2021/11/26 06:18:28;;;;;;;16.55;13.48;;;;;;;0.94;100.00;94574.47;5052982;28;20064;-60
2021/11/26 06:20:54;;;;;;;17.67;13.40;;;;;;;0.95;100.00;94569.19;5053425;28;20120;-60
2021/11/26 06:23:19;;;;;;;13.52;12.02;;;;;;;0.94;100.00;94572.72;5054687;28;20033;-60
2021/11/26 06:25:44;;;;;;;13.60;11.82;;;;;;;1.06;100.00;94559.78;5051138;28;20120;-60
2021/11/26 06:28:10;;;;;;;13.43;10.98;;;;;;;1.00;100.00;94561.09;5056148;28;20033;-60
2021/11/26 06:30:35;;;;;;;12.73;11.43;;;;;;;0.94;100.00;94558.91;5052210;28;20533;-60
2021/11/26 06:33:01;;;;;;;12.45;10.55;;;;;;;1.05;100.00;94551.22;5056612;28;20044;-59
2021/11/26 06:35:26;;;;;;;15.57;13.55;;;;;;;1.03;100.00;94552.25;5053951;28;20500;-58
2021/11/26 06:37:54;;;;;;;12.02;10.57;;;;;;;0.90;100.00;94547.97;5053414;28;20033;-59
2021/11/26 06:40:20;;;;;;;14.32;9.95;;;;;;;0.97;100.00;94550.91;5055077;28;20071;-60
2021/11/26 06:42:47;;;;;;;13.70;11.88;;;;;;;0.96;100.00;94546.69;5052229;28;20029;-59
2021/11/26 06:45:13;;;;;;;10.70;9.65;;;;;;;1.00;99.15;94550.72;5054517;28;20403;-60
2021/11/26 06:47:39;;;;;;;10.73;9.32;;;;;;;1.03;99.18;94541.88;5055154;28;20740;-61
2021/11/26 06:50:06;;;;;;;11.05;9.85;;;;;;;0.82;99.95;94542.50;5052605;28;20495;-59
2021/11/26 06:52:32;;;;;;;11.00;9.90;;;;;;;0.74;99.97;94542.22;5053785;28;20063;-59
2021/11/26 06:54:58;;;;;;;20.52;16.77;;;;;;;0.67;100.00;94541.84;5054573;28;20076;-61
2021/11/26 06:57:23;;;;;;;11.93;9.02;;;;;;;0.79;99.88;94538.38;5053956;28;20140;-59
2021/11/26 06:59:48;;;;;;;11.40;9.52;;;;;;;0.88;99.85;94536.06;5051549;28;20472;-62
2021/11/26 07:02:14;;;;;;;9.93;8.98;;;;;;;0.79;98.96;94537.53;5051288;28;20048;-61
2021/11/26 07:04:43;;;;;;;11.55;10.35;;;;;;;0.67;99.81;94531.47;5056523;28;20091;-61
2021/11/26 07:07:08;;;;;;;10.27;9.10;;;;;;;0.69;99.74;94520.06;5051137;28;20485;-61
2021/11/26 07:09:33;;;;;;;9.93;8.93;;;;;;;0.64;100.00;94521.34;5056071;28;20033;-62
2021/11/26 07:11:59;;;;;;;9.57;8.68;;;;;;;0.71;100.00;94527.72;5054960;28;20404;-62
2021/11/26 07:14:24;;;;;;;9.68;8.85;;;;;;;0.74;100.00;94532.69;5049914;28;20043;-60
2021/11/26 07:16:50;;;;;;;10.20;9.20;;;;;;;0.57;100.00;94545.09;5052062;28;20704;-62
2021/11/26 07:19:15;;;;;;;9.95;9.00;;;;;;;0.67;100.00;94559.97;5050911;28;20060;-62
2021/11/26 07:21:40;;;;;;;8.82;8.02;;;;;;;0.80;98.37;94565.94;5052636;28;20063;-63
2021/11/26 07:24:06;;;;;;;7.20;6.50;;;;;;;0.82;98.55;94568.41;5053245;28;20120;-61
2021/11/26 07:26:31;;;;;;;8.50;7.70;;;;;;;0.70;98.10;94570.13;5052671;28;20492;-63
2021/11/26 07:28:56;;;;;;;7.60;7.00;;;;;;;0.63;97.70;94574.09;5052370;28;20064;-61
2021/11/26 07:31:22;;;;;;;7.55;6.85;;;;;;;0.55;98.60;94574.63;5054165;28;20025;-61
2021/11/26 07:33:47;;;;;;;8.25;7.20;;;;;;;0.49;97.80;94570.69;5050864;28;20472;-63
2021/11/26 07:36:13;;;;;;;7.15;6.55;;;;;;;0.54;97.40;94576.38;5049645;28;20516;-63
2021/11/26 07:38:39;;;;;;;6.38;5.78;;;;;;;0.57;97.32;94575.34;5052560;28;20070;-63
2021/11/26 07:41:04;;;;;;;6.53;6.03;;;;;;;0.53;97.22;94569.53;5054354;28;20032;-62
2021/11/26 07:43:30;;;;;;;6.63;6.13;;;;;;;0.54;97.36;94566.00;5050280;28;20081;-61
2021/11/26 07:45:56;;;;;;;8.55;7.75;;;;;;;0.62;97.35;94575.84;5052356;28;20083;-62
2021/11/26 07:48:22;;;;;;;9.43;8.63;;;;;;;0.56;97.34;94579.72;5052816;28;20427;-63
2021/11/26 07:50:47;;;;;;;8.48;7.78;;;;;;;0.50;97.87;94579.31;5052378;28;20112;-62
2021/11/26 07:53:13;;;;;;;8.25;7.53;;;;;;;0.47;98.10;94580.34;5051672;28;20033;-62
2021/11/26 07:55:38;;;;;;;8.73;7.70;;;;;;;0.50;98.35;94577.53;5051385;28;20032;-62
2021/11/26 07:58:06;;;;;;;8.00;7.30;;;;;;;0.48;97.54;94581.19;5050240;28;20171;-62
2021/11/26 08:00:32;;;;;;;19.63;6.38;;;;;;;0.54;97.62;94581.56;5047402;28;20045;-62
2021/11/26 08:03:01;;;;;;;6.00;5.50;;;;;;;0.62;97.25;94575.03;5051345;28;20099;-62
2021/11/26 08:05:26;;;;;;;7.05;6.45;;;;;;;0.71;96.87;94582.13;5049481;28;20157;-62
2021/11/26 08:07:52;;;;;;;6.72;6.22;;;;;;;0.95;94.66;94583.91;5051559;28;20033;-62
2021/11/26 08:10:18;;;;;;;6.40;5.90;;;;;;;0.93;94.63;94585.78;5056747;28;20107;-62
2021/11/26 08:12:44;;;;;;;6.45;5.95;;;;;;;0.82;94.45;94579.63;5050965;28;20480;-62
2021/11/26 08:15:12;;;;;;;6.55;5.95;;;;;;;0.79;94.43;94576.41;5048435;28;20036;-62
2021/11/26 08:17:37;;;;;;;6.53;5.97;;;;;;;0.70;93.36;94576.13;5053625;28;20037;-62
2021/11/26 08:20:04;;;;;;;6.32;5.82;;;;;;;0.64;94.42;94581.72;5052051;28;20246;-62
2021/11/26 08:22:29;;;;;;;6.72;6.22;;;;;;;0.54;93.79;94578.97;5050228;28;20117;-62
2021/11/26 08:24:55;;;;;;;6.68;6.13;;;;;;;0.54;94.32;94583.34;5053319;28;20029;-62
2021/11/26 08:27:20;;;;;;;6.55;6.05;;;;;;;0.51;95.18;94579.19;5054647;28;20504;-62
2021/11/26 08:29:45;;;;;;;7.65;7.05;;;;;;;0.58;95.38;94574.41;5051594;28;20104;-62
2021/11/26 08:32:11;;;;;;;8.63;7.82;;;;;;;0.63;95.16;94571.50;5045126;28;20029;-62
2021/11/26 08:34:36;;;;;;;7.80;7.10;;;;;;;0.75;94.82;94577.56;5053589;28;20407;-63
2021/11/26 08:37:02;;;;;;;7.32;6.68;;;;;;;0.71;93.95;94577.78;5050881;28;20452;-62
2021/11/26 08:39:28;;;;;;;7.85;7.22;;;;;;;0.70;94.53;94575.28;5052918;28;20032;-62
2021/11/26 08:41:53;;;;;;;8.45;7.65;;;;;;;0.66;94.07;94569.53;5049105;28;20033;-62
2021/11/26 08:44:18;;;;;;;7.30;6.70;;;;;;;0.75;93.83;94573.19;5049064;28;20037;-62
2021/11/26 08:46:44;;;;;;;7.35;6.68;;;;;;;0.63;93.93;94564.53;5050398;28;20052;-62
2021/11/26 08:49:09;;;;;;;7.80;7.10;;;;;;;0.53;96.06;94579.91;5048766;28;20408;-62
2021/11/26 08:51:38;;;;;;;9.15;8.25;;;;;;;0.53;95.96;94579.91;5051006;28;20029;-62
2021/11/26 08:54:05;;;;;;;10.68;8.98;;;;;;;0.48;95.89;94576.81;5049430;28;20060;-62
2021/11/26 08:56:31;;;;;;;9.45;8.55;;;;;;;0.60;95.48;94580.28;5051539;28;20041;-62
2021/11/26 08:58:57;;;;;;;10.00;9.00;;;;;;;0.49;94.91;94586.22;5052481;28;20107;-62
2021/11/26 09:01:22;;;;;;;9.70;8.80;;;;;;;0.40;94.83;94586.88;5050120;28;20492;-62
2021/11/26 09:03:51;;;;;;;10.05;9.15;;;;;;;0.40;94.64;94586.88;5066261;28;20032;-62
2021/11/26 09:06:18;;;;;;;10.15;9.10;;;;;;;0.42;94.84;94593.59;5070438;28;20096;-62
2021/11/26 09:08:43;;;;;;;10.05;9.05;;;;;;;0.40;94.27;94590.28;5070996;28;20040;-62
2021/11/26 09:11:09;;;;;;;9.02;8.05;;;;;;;0.34;95.35;94595.09;5071320;28;20032;-62
2021/11/26 09:13:34;;;;;;;14.20;12.73;;;;;;;0.26;95.19;94601.59;5069062;28;20067;-62
2021/11/26 09:16:00;;;;;;;17.58;15.38;;;;;;;0.25;95.97;94602.53;5071272;28;20455;-62
2021/11/26 09:18:27;;;;;;;14.45;11.55;;;;;;;0.31;95.75;94598.72;5070988;28;20055;-62
2021/11/26 09:20:53;;;;;;;13.48;12.18;;;;;;;0.30;96.29;94597.06;5069504;28;20071;-62
2021/11/26 09:23:20;;;;;;;13.35;12.05;;;;;;;0.27;96.67;94600.69;5070441;28;20484;-64
2021/11/26 09:25:45;;;;;;;10.82;9.73;;;;;;;0.30;97.68;94593.63;5070669;28;20112;-64
2021/11/26 09:28:11;;;;;;;10.57;9.57;;;;;;;0.40;96.92;94592.06;5069911;28;20115;-62
2021/11/26 09:30:37;;;;;;;12.25;11.05;;;;;;;0.42;96.53;94595.38;5066856;28;20467;-63
2021/11/26 09:33:02;;;;;;;11.45;10.35;;;;;;;0.63;96.61;94594.81;5065957;28;20080;-63
2021/11/26 09:35:30;;;;;;;11.82;10.63;;;;;;;0.58;95.29;94592.53;5070361;28;20033;-64
2021/11/26 09:37:58;;;;;;;11.95;10.75;;;;;;;0.55;95.11;94596.19;5069145;28;20115;-62
2021/11/26 09:40:24;;;;;;;13.45;11.50;;;;;;;0.57;95.06;94594.31;5069848;28;20033;-64
2021/11/26 09:42:49;;;;;;;11.45;10.35;;;;;;;0.52;94.79;94598.97;5072836;28;20058;-64
2021/11/26 09:45:21;;;;;;;11.43;10.20;;;;;;;0.55;94.56;94593.59;5073036;28;20510;-63
2021/11/26 09:47:47;;;;;;;12.73;11.43;;;;;;;0.43;93.94;94589.25;5054151;28;20052;-63
2021/11/26 09:50:12;;;;;;;13.30;11.98;;;;;;;0.36;94.26;94593.22;5072196;28;20071;-62
2021/11/26 09:52:39;;;;;;;14.57;13.07;;;;;;;0.41;94.46;94598.91;5071129;28;20063;-63
2021/11/26 09:55:06;;;;;;;13.57;12.27;;;;;;;0.36;94.85;94585.47;5076789;28;20040;-62
2021/11/26 09:57:32;;;;;;;14.48;13.07;;;;;;;0.23;95.09;94583.69;5072752;28;20152;-63
2021/11/26 09:59:57;;;;;;;22.25;15.50;;;;;;;0.09;94.92;94583.81;5075020;28;20108;-63
2021/11/26 10:02:23;;;;;;;16.90;11.38;;;;;;;0.13;95.95;94573.16;5065720;28;20061;-64
2021/11/26 10:05:04;;;;;;;14.35;12.85;;;;;;;0.27;96.17;94574.78;5052118;28;20065;-64
2021/11/26 10:07:30;;;;;;;12.20;11.02;;;;;;;0.30;95.05;94568.56;5045515;28;20112;-64
2021/11/26 10:10:06;;;;;;;15.48;13.95;;;;;;;0.11;96.77;94556.06;5056815;28;20056;-64
2021/11/26 10:12:32;;;;;;;17.42;14.02;;;;;;;0.20;97.09;94552.84;5050803;28;20033;-64
2021/11/26 10:14:57;;;;;;;13.68;11.80;;;;;;;0.19;97.19;94548.63;5053158;28;20418;-64
2021/11/26 10:17:24;;;;;;;13.75;12.10;;;;;;;0.30;97.64;94547.03;5050294;28;20047;-64
2021/11/26 10:19:54;;;;;;;12.25;11.10;;;;;;;0.36;97.83;94546.63;5053955;28;20492;-64
2021/11/26 10:22:24;;;;;;;18.02;16.23;;;;;;;0.48;98.04;94561.28;5054749;28;20128;-63
2021/11/26 10:25:00;;;;;;;15.00;13.40;;;;;;;0.33;96.92;94554.56;5044918;28;20037;-63
2021/11/26 10:27:49;;;;;;;16.83;15.02;;;;;;;0.17;97.96;94558.25;5053461;28;20037;-64
2021/11/26 10:30:17;;;;;;;21.27;15.52;;;;;;;0.06;98.48;94561.56;5032555;28;20037;-63
2021/11/26 10:33:06;;;;;;;18.02;14.25;;;;;;;0.04;97.74;94575.53;5051116;28;20071;-63
2021/11/26 10:35:35;;;;;;;19.30;14.07;;;;;;;0.05;98.59;94572.03;5053093;28;20492;-62
2021/11/26 10:38:13;;;;;;;14.68;13.13;;;;;;;0.10;98.56;94560.44;5050404;28;20539;-62
2021/11/26 10:40:50;;;;;;;14.52;13.05;;;;;;;0.14;99.32;94566.22;5053185;28;20040;-62
2021/11/26 10:43:19;;;;;;;14.35;12.85;;;;;;;0.14;99.74;94553.28;5050048;28;20037;-62
2021/11/26 10:48:44;;;;;;;13.18;11.88;;;;;;;0.21;99.05;94557.09;5056762;28;20069;-62
2021/11/26 10:56:51;;;;;;;12.55;10.95;;;;;;;0.23;97.92;94555.22;5056393;28;20420;-64
2021/11/26 10:59:28;;;;;;;11.88;10.73;;;;;;;0.26;97.07;94560.19;5053023;28;20041;-63
2021/11/26 11:01:53;;;;;;;12.48;11.18;;;;;;;0.25;96.67;94560.31;5057464;28;20115;-64
2021/11/26 11:04:22;;;;;;;10.85;9.80;;;;;;;0.30;97.96;94555.63;5068993;28;20104;-64
2021/11/26 11:06:57;;;;;;;11.20;10.00;;;;;;;0.25;96.50;94561.13;5071271;28;20595;-64
2021/11/26 11:09:22;;;;;;;13.48;10.10;;;;;;;0.26;97.08;94556.78;5075847;28;20036;-63
2021/11/26 11:11:50;;;;;;;12.38;11.18;;;;;;;0.30;96.36;94550.44;5072556;28;20045;-64
2021/11/26 11:14:18;;;;;;;12.60;11.23;;;;;;;0.35;97.41;94548.38;5070235;28;20040;-64
2021/11/26 11:16:55;;;;;;;12.38;11.18;;;;;;;0.39;96.97;94556.75;5072725;28;20504;-64
2021/11/26 11:19:22;;;;;;;13.15;11.82;;;;;;;0.35;95.36;94548.38;5073293;28;20021;-63
2021/11/26 11:21:49;;;;;;;12.70;11.38;;;;;;;0.35;95.68;94545.78;5075909;28;20040;-63
2021/11/26 11:24:16;;;;;;;12.23;11.02;;;;;;;0.28;94.01;94542.78;5071087;28;20025;-64
2021/11/26 11:26:46;;;;;;;13.02;11.73;;;;;;;0.25;94.08;94537.00;5075416;28;20041;-64
2021/11/26 11:29:20;;;;;;;11.73;10.57;;;;;;;0.35;95.84;94525.06;5075248;28;20407;-64